Flight Track Log - Related Links

Times and Time Zones

All times are in EDT time to prevent confusion due to time zone crossing. See the MSR663 flight status page for this flight to view local times or setup timezone preferences in your user account.

Time Position Orientation Groundspeed Altitude Reporting Facility
EDT Latitude Longitude Course Direction KTS MPH feet Rate Location/Type
Mon 06:02:00 PM 28.6016 32.9191 139° Southeast  Level Estimated
Mon 06:03:00 PM 28.5060 33.0122 139° Southeast  Level Estimated
Mon 06:04:00 PM 28.4104 33.1052 139° Southeast  Level Estimated
Mon 06:05:00 PM 28.3147 33.1980 140° Southeast  Level Estimated
Mon 06:06:00 PM 28.2189 33.2906 140° Southeast  Level Estimated
Mon 06:07:00 PM 28.1231 33.3830 140° Southeast  Level Estimated
Mon 06:08:00 PM 28.0272 33.4753 140° Southeast  Level Estimated
Mon 06:09:00 PM 27.9313 33.5675 140° Southeast  Level Estimated
Mon 06:10:00 PM 27.8353 33.6594 140° Southeast  Level Estimated
Mon 06:11:00 PM 27.7392 33.7512 140° Southeast  Level Estimated
Mon 06:12:00 PM 27.6430 33.8428 140° Southeast  Level Estimated
Mon 06:13:00 PM 27.5469 33.9343 140° Southeast  Level Estimated
Mon 06:14:00 PM 27.4506 34.0256 140° Southeast  Level Estimated
Mon 06:15:00 PM 27.3543 34.1168 140° Southeast  Level Estimated
Mon 06:16:00 PM 27.2579 34.2077 140° Southeast  Level Estimated
Mon 06:17:00 PM 27.1615 34.2986 140° Southeast  Level Estimated
Mon 06:18:00 PM 27.0650 34.3893 140° Southeast  Level Estimated
Mon 06:19:00 PM 26.9685 34.4798 140° Southeast  Level Estimated
Mon 06:20:00 PM 26.8718 34.5702 140° Southeast  Level Estimated
Mon 06:21:00 PM 26.7752 34.6604 140° Southeast  Level Estimated
Mon 06:22:00 PM 26.6785 34.7504 140° Southeast  Level Estimated
Mon 06:23:00 PM 26.5817 34.8403 140° Southeast  Level Estimated
Mon 06:24:00 PM 26.4848 34.9301 140° Southeast  Level Estimated
Mon 06:25:00 PM 26.3880 35.0197 140° Southeast  Level Estimated
Mon 06:26:00 PM 26.2910 35.1091 140° Southeast  Level Estimated
Mon 06:27:00 PM 26.1940 35.1985 140° Southeast  Level Estimated
Mon 06:28:00 PM 26.0970 35.2876 140° Southeast  Level Estimated
Mon 06:29:00 PM 25.9998 35.3766 141° Southeast  Level Estimated
Mon 06:30:00 PM 25.9027 35.4655 141° Southeast  Level Estimated
Mon 06:31:00 PM 25.8055 35.5542 141° Southeast  Level Estimated
Mon 06:32:00 PM 25.7082 35.6428 141° Southeast  Level Estimated
Mon 06:33:00 PM 25.6109 35.7312 141° Southeast  Level Estimated
Mon 06:34:00 PM 25.5135 35.8195 141° Southeast  Level Estimated
Mon 06:35:00 PM 25.4160 35.9076 141° Southeast  Level Estimated
Mon 06:36:00 PM 25.3186 35.9956 141° Southeast  Level Estimated
Mon 06:37:00 PM 25.2210 36.0835 141° Southeast  Level Estimated
Mon 06:38:00 PM 25.1234 36.1712 141° Southeast  Level Estimated
Mon 06:39:00 PM 25.0258 36.2588 141° Southeast  Level Estimated
Mon 06:40:00 PM 24.9281 36.3462 141° Southeast  Level Estimated
Mon 06:41:00 PM 24.8304 36.4335 141° Southeast  Level Estimated
Mon 06:42:00 PM 24.7326 36.5206 141° Southeast  Level Estimated
Mon 06:43:00 PM 24.6347 36.6077 141° Southeast  Level Estimated
Mon 06:44:00 PM 24.5368 36.6945 141° Southeast  Level Estimated
Mon 06:45:00 PM 24.4389 36.7813 141° Southeast  Level Estimated
Mon 06:46:00 PM 24.3409 36.8679 141° Southeast  Level Estimated
Mon 06:47:00 PM 24.2429 36.9544 141° Southeast  Level Estimated
Mon 06:48:00 PM 24.1448 37.0407 141° Southeast  Level Estimated
Mon 06:49:00 PM 24.0466 37.1269 141° Southeast  Level Estimated
Mon 06:50:00 PM 23.9485 37.2130 141° Southeast  Level Estimated
Mon 06:51:00 PM 23.8502 37.2990 141° Southeast  Level Estimated
Mon 06:52:00 PM 23.7519 37.3848 141° Southeast  Level Estimated
Mon 06:53:00 PM 23.6536 37.4705 141° Southeast  Level Estimated
Mon 06:54:00 PM 23.5552 37.5560 141° Southeast  Level Estimated
Mon 06:55:00 PM 23.4568 37.6415 141° Southeast  Level Estimated
Mon 06:56:00 PM 23.3584 37.7268 141° Southeast  Level Estimated
Mon 06:57:00 PM 23.2598 37.8120 142° Southeast  Level Estimated
Mon 06:58:00 PM 23.1613 37.8970 142° Southeast  Level Estimated
Mon 06:59:00 PM 23.0627 37.9820 142° Southeast  Level Estimated
Mon 07:00:00 PM 22.9640 38.0668 142° Southeast  Level Estimated
Mon 07:01:00 PM 22.8653 38.1515 142° Southeast  Level Estimated
Mon 07:02:00 PM 22.7666 38.2360 142° Southeast  Level Estimated
Mon 07:03:00 PM 22.6678 38.3204 142° Southeast  Level Estimated
Mon 07:04:00 PM 22.5690 38.4048 142° Southeast  Level Estimated
Mon 07:05:00 PM 22.4701 38.4890 142° Southeast  Level Estimated
Mon 07:06:00 PM 22.3711 38.5730 142° Southeast  Level Estimated
Mon 07:07:00 PM 22.2722 38.6570 142° Southeast  Level Estimated
Mon 07:08:00 PM 22.1732 38.7408 142° Southeast  Level Estimated
Mon 07:09:00 PM 22.0741 38.8246 142° Southeast  Level Estimated
Mon 07:10:00 PM 21.9750 38.9081 142° Southeast  Level Estimated
Mon 07:11:00 PM 21.8759 38.9916 142° Southeast  Level Estimated
Mon 07:12:00 PM 21.7767 39.0750 142° Southeast  Level Estimated
Mon 07:13:00 PM 21.6796 39.1565 142° Southeast  Level Estimated
Mon 07:14:00 PM 21.6796 39.1565 317° Northwest  Level Estimated
Mon 07:15:00 PM 21.6796 39.1565 317° Northwest  Level Estimated
Mon 07:15:47 PM 21.5240 39.1900 317° Northwest 172 198 2,500  Level FlightAware ADS-B
Mon 07:16:00 PM 21.6796 39.1565 317° Northwest  Level Estimated
Mon 07:16:17 PM 21.5440 39.1820 340° North 167 192 2,100  Level FlightAware ADS-B
Mon 07:16:42 PM 21.5610 39.1750 339° North 169 194 1,800 -764 Descending FlightAware ADS-B
Mon 07:17:12 PM 21.5800 39.1670 339° North 166 191 1,400 -764 Descending FlightAware ADS-B
Mon 07:17:37 PM 21.5970 39.1600 339° North 154 177 1,100 -764 Descending FlightAware ADS-B
Mon 07:18:07 PM 21.6160 39.1530 341° North 151 174 700 -429 Descending FlightAware ADS-B
Mon 07:18:47 PM 21.6360 39.1440 337° Northwest 150 173 600 -429 Descending FlightAware ADS-B
Mon 07:19:17 PM 21.6560 39.1360 340° North 149 171 200 -800 Descending FlightAware ADS-B
Mon 07:21:00 PM 21.6796 39.1565 39° Northeast  Level Estimated
Mon 07:22:00 PM 21.6796 39.1565 317° Northwest  Level Estimated
Mon 07:23:00 PM 21.6796 39.1565 317° Northwest  Level Estimated
Mon 07:24:00 PM 21.6796 39.1565 317° Northwest  Level Estimated
Mon 07:25:00 PM 21.6796 39.1565 317° Northwest  Level Estimated
Mon 07:26:00 PM 21.6796 39.1565 317° Northwest  Level Estimated
Mon 07:27:00 PM 21.6796 39.1565 317° Northwest  Level Estimated
Mon 07:28:00 PM 21.6796 39.1565 317° Northwest  Level Estimated
Mon 07:29:00 PM 21.6796 39.1565 317° Northwest  Level Estimated

Login

Don't have an account? Register now (free) for customized features, flight alerts, and more!